Time;durP1;ratioP1;P1;durP2;ratioP2;P2;SDS_P1;SDS_P2;PMS_P1;PMS_P2;Temp;Humidity;BMP_temperature;BMP_pressure;BME280_temperature;BME280_humidity;BME280_pressure;Samples;Min_cycle;Max_cycle;Signal;HPM_P1;HPM_P2
2022/10/26 00:01:51;;;;;;;1.87;1.50;;;16.10;99.90;;;;;;5040967;28;20236;-77
2022/10/26 00:04:20;;;;;;;1.40;1.30;;;16.10;99.90;;;;;;5021746;28;20243;-79
2022/10/26 00:06:47;;;;;;;1.50;1.20;;;16.10;99.90;;;;;;5029631;28;20320;-78
2022/10/26 00:09:14;;;;;;;1.67;1.33;;;16.10;99.90;;;;;;5031910;28;20230;-77
2022/10/26 00:11:41;;;;;;;2.43;1.90;;;16.10;99.90;;;;;;5038003;28;20187;-79
2022/10/26 00:14:09;;;;;;;4.60;1.63;;;16.00;99.90;;;;;;5026035;28;20294;-76
2022/10/26 00:16:36;;;;;;;1.53;1.47;;;16.00;99.90;;;;;;5036700;28;20197;-76
2022/10/26 00:19:03;;;;;;;3.47;1.70;;;16.00;99.90;;;;;;5027782;28;20273;-79
2022/10/26 00:21:31;;;;;;;1.87;1.57;;;16.00;99.90;;;;;;5034621;28;20287;-77
2022/10/26 00:23:59;;;;;;;8.60;2.17;;;16.00;99.90;;;;;;5040950;28;20559;-76
2022/10/26 00:26:26;;;;;;;4.90;2.30;;;16.00;99.90;;;;;;5041061;28;20365;-78
2022/10/26 00:28:56;;;;;;;1.70;1.60;;;16.00;99.90;;;;;;5039445;28;20238;-78
2022/10/26 00:31:24;;;;;;;2.10;1.97;;;15.90;99.90;;;;;;5040972;28;20203;-78
2022/10/26 00:33:53;;;;;;;3.47;1.90;;;16.00;99.90;;;;;;5040892;28;20202;-75
2022/10/26 00:36:20;;;;;;;2.83;2.13;;;16.00;99.90;;;;;;5043807;28;20193;-77
2022/10/26 00:38:51;;;;;;;2.93;1.90;;;15.90;99.90;;;;;;5044325;28;20214;-78
2022/10/26 00:41:19;;;;;;;1.90;1.80;;;15.90;99.90;;;;;;5027989;28;20195;-77
2022/10/26 00:43:47;;;;;;;1.60;1.50;;;15.90;99.90;;;;;;5046263;28;20211;-80
2022/10/26 00:46:20;;;;;;;2.33;2.10;;;15.90;99.90;;;;;;5034631;28;20753;-78
2022/10/26 00:48:51;;;;;;;2.77;1.90;;;15.90;99.90;;;;;;5039163;28;20199;-80
2022/10/26 00:51:25;;;;;;;1.87;1.33;;;15.90;99.90;;;;;;5040860;28;20197;-77
2022/10/26 00:53:55;;;;;;;2.57;1.60;;;15.90;99.90;;;;;;5025873;28;20200;-78
2022/10/26 00:56:22;;;;;;;1.80;1.70;;;15.90;99.90;;;;;;5043248;28;20194;-78
2022/10/26 00:58:50;;;;;;;2.27;1.60;;;16.00;99.90;;;;;;5027895;28;20206;-77
2022/10/26 01:01:17;;;;;;;1.60;1.50;;;16.00;99.90;;;;;;5047614;28;20561;-78
2022/10/26 01:03:46;;;;;;;2.20;1.80;;;16.00;99.90;;;;;;5022794;28;20325;-78
2022/10/26 01:06:15;;;;;;;2.40;1.90;;;16.00;99.90;;;;;;5037170;28;20208;-80
2022/10/26 01:08:43;;;;;;;2.47;2.00;;;16.00;99.90;;;;;;5039397;28;20229;-78
2022/10/26 01:11:13;;;;;;;1.77;1.67;;;16.00;99.90;;;;;;5044533;28;20299;-78
2022/10/26 01:13:42;;;;;;;2.07;1.60;;;16.00;99.90;;;;;;5040486;28;20554;-78
2022/10/26 01:16:32;;;;;;;2.60;1.53;;;16.00;99.90;;;;;;5032937;28;20302;-80
2022/10/26 01:19:18;;;;;;;1.50;1.40;;;16.00;99.90;;;;;;5034288;28;20264;-77
2022/10/26 01:21:50;;;;;;;1.80;1.70;;;16.00;99.90;;;;;;5031860;28;20200;-78
2022/10/26 01:24:45;;;;;;;2.83;1.90;;;16.00;99.90;;;;;;5043130;28;20683;-78
2022/10/26 01:27:25;;;;;;;4.47;1.97;;;16.00;99.90;;;;;;5023761;28;20208;-78
2022/10/26 01:30:20;;;;;;;2.27;2.03;;;16.00;99.90;;;;;;5025121;28;20281;-78
2022/10/26 01:32:59;;;;;;;3.73;2.10;;;16.00;99.90;;;;;;5042029;28;20203;-79
2022/10/26 01:35:32;;;;;;;2.10;1.90;;;15.90;99.90;;;;;;5043579;28;20186;-78
2022/10/26 01:38:08;;;;;;;2.83;2.00;;;15.90;99.90;;;;;;5047525;28;20663;-82
2022/10/26 01:40:40;;;;;;;5.87;2.07;;;15.90;99.90;;;;;;5038543;28;20205;-78
2022/10/26 01:43:10;;;;;;;3.00;1.60;;;16.00;99.90;;;;;;5040104;28;20212;-77
2022/10/26 01:45:42;;;;;;;2.37;1.90;;;15.90;99.90;;;;;;5040096;28;20204;-77
2022/10/26 01:48:13;;;;;;;2.40;2.20;;;16.00;99.90;;;;;;5038193;28;20246;-78
2022/10/26 01:50:41;;;;;;;2.07;1.77;;;15.90;99.90;;;;;;5040467;28;20196;-78
2022/10/26 01:53:12;;;;;;;1.67;1.43;;;15.90;99.90;;;;;;5040095;28;20194;-77
2022/10/26 01:55:47;;;;;;;1.53;1.40;;;15.90;99.90;;;;;;5037528;28;20683;-78
2022/10/26 01:58:37;;;;;;;1.47;1.37;;;16.00;99.90;;;;;;5043602;28;20191;-78
2022/10/26 02:01:17;;;;;;;1.20;1.20;;;16.00;99.90;;;;;;5028301;28;20209;-78
2022/10/26 02:03:49;;;;;;;1.80;1.60;;;16.00;99.90;;;;;;5026740;28;20239;-78
2022/10/26 02:06:22;;;;;;;1.70;1.40;;;16.00;99.90;;;;;;5042993;28;20273;-80
2022/10/26 02:09:04;;;;;;;2.20;1.60;;;16.00;99.90;;;;;;5035324;28;20780;-80
2022/10/26 02:11:38;;;;;;;1.73;1.40;;;15.90;99.90;;;;;;5028700;28;20199;-80
2022/10/26 02:14:18;;;;;;;2.93;1.83;;;16.00;99.90;;;;;;5024267;28;20668;-78
2022/10/26 02:16:54;;;;;;;1.60;1.50;;;16.00;99.90;;;;;;5039808;28;20201;-78
2022/10/26 02:19:36;;;;;;;2.03;1.80;;;16.00;99.90;;;;;;5038551;28;20200;-78
2022/10/26 02:22:09;;;;;;;1.90;1.43;;;16.00;99.90;;;;;;5043759;28;20672;-79
2022/10/26 02:24:37;;;;;;;1.63;1.40;;;16.00;99.90;;;;;;5040957;28;20632;-78
2022/10/26 02:27:08;;;;;;;1.67;1.57;;;16.00;99.90;;;;;;5036334;28;20566;-78
2022/10/26 02:29:36;;;;;;;1.67;1.57;;;15.90;99.90;;;;;;5022366;28;20738;-78
2022/10/26 02:32:07;;;;;;;2.90;1.47;;;16.00;99.90;;;;;;5031430;28;20742;-80
2022/10/26 02:34:38;;;;;;;1.57;1.47;;;15.90;99.90;;;;;;5037932;28;20741;-78
2022/10/26 02:37:06;;;;;;;1.67;1.40;;;15.90;99.90;;;;;;5042561;28;20267;-77
2022/10/26 02:39:35;;;;;;;2.10;1.60;;;15.90;99.90;;;;;;5034600;28;20278;-77
2022/10/26 02:42:05;;;;;;;5.77;2.00;;;15.90;99.90;;;;;;5037766;28;20204;-77
2022/10/26 02:44:37;;;;;;;1.97;1.77;;;15.90;99.90;;;;;;5036242;28;20644;-77
2022/10/26 02:47:06;;;;;;;4.93;2.00;;;15.90;99.90;;;;;;5026256;28;20215;-78
2022/10/26 02:49:33;;;;;;;2.40;1.87;;;15.80;99.90;;;;;;5036675;28;20263;-78
2022/10/26 02:52:04;;;;;;;2.60;2.00;;;15.80;99.90;;;;;;5040718;28;20197;-79
2022/10/26 02:54:42;;;;;;;3.80;2.03;;;15.80;99.90;;;;;;5037630;28;20356;-79
2022/10/26 02:57:15;;;;;;;2.30;2.10;;;15.80;99.90;;;;;;5040301;28;20189;-79
2022/10/26 02:59:46;;;;;;;4.97;2.33;;;15.80;99.90;;;;;;5040511;28;20278;-80
2022/10/26 03:02:16;;;;;;;1.93;1.83;;;15.80;99.90;;;;;;5037589;28;20284;-79
2022/10/26 03:04:43;;;;;;;3.73;2.37;;;15.80;99.90;;;;;;5037141;28;20272;-78
2022/10/26 03:07:10;;;;;;;4.20;2.83;;;15.80;99.90;;;;;;5041875;28;20214;-79
2022/10/26 03:09:38;;;;;;;5.17;3.20;;;15.80;99.90;;;;;;5032340;28;20349;-78
2022/10/26 03:12:05;;;;;;;5.17;2.90;;;15.70;99.90;;;;;;5037024;28;20195;-78
2022/10/26 03:14:32;;;;;;;6.43;3.93;;;15.70;99.90;;;;;;5039559;28;20192;-77
2022/10/26 03:17:00;;;;;;;4.20;3.00;;;15.70;99.90;;;;;;5042374;28;20795;-78
2022/10/26 03:19:28;;;;;;;5.33;2.83;;;15.60;99.90;;;;;;5037203;28;20231;-78
2022/10/26 03:21:55;;;;;;;2.83;2.63;;;15.60;99.90;;;;;;5038360;28;20199;-81
2022/10/26 03:24:22;;;;;;;11.27;3.93;;;15.60;99.90;;;;;;5039607;28;20191;-78
2022/10/26 03:26:50;;;;;;;4.47;3.90;;;15.60;99.90;;;;;;5040504;28;20222;-78
2022/10/26 03:29:17;;;;;;;3.90;3.50;;;15.60;99.90;;;;;;5039470;28;20190;-78
2022/10/26 03:31:44;;;;;;;4.73;3.10;;;15.60;99.90;;;;;;5026218;28;20200;-77
2022/10/26 03:34:12;;;;;;;5.53;3.13;;;15.60;99.90;;;;;;5039733;28;20231;-78
2022/10/26 03:36:41;;;;;;;3.50;3.20;;;15.50;99.90;;;;;;5034054;28;20254;-78
2022/10/26 03:39:08;;;;;;;8.63;4.80;;;15.60;99.90;;;;;;5040782;28;20530;-79
2022/10/26 03:41:35;;;;;;;3.47;3.20;;;15.50;99.90;;;;;;5036526;28;20198;-79
2022/10/26 03:44:02;;;;;;;4.73;3.20;;;15.60;99.90;;;;;;5042967;28;20201;-79
2022/10/26 03:46:30;;;;;;;5.40;3.93;;;15.60;99.90;;;;;;5039952;28;20207;-78
2022/10/26 03:48:57;;;;;;;3.53;3.20;;;15.60;99.90;;;;;;5035608;28;20214;-77
2022/10/26 03:51:24;;;;;;;3.93;3.57;;;15.50;99.90;;;;;;5041585;28;20195;-77
2022/10/26 03:53:53;;;;;;;3.07;2.77;;;15.50;99.90;;;;;;5038499;28;20206;-78
2022/10/26 03:56:20;;;;;;;5.40;3.97;;;15.50;99.90;;;;;;5037868;28;20190;-78
2022/10/26 03:58:47;;;;;;;8.70;5.27;;;15.50;99.90;;;;;;5035317;28;20193;-78
2022/10/26 04:01:14;;;;;;;8.00;4.87;;;15.50;99.90;;;;;;5035054;28;20602;-78
2022/10/26 04:03:42;;;;;;;4.87;4.10;;;15.50;99.90;;;;;;5040338;28;20336;-79
2022/10/26 04:06:09;;;;;;;7.63;4.50;;;15.50;99.90;;;;;;5037681;28;20561;-78
2022/10/26 04:08:36;;;;;;;8.60;5.73;;;15.40;99.90;;;;;;5039235;28;20697;-79
2022/10/26 04:11:05;;;;;;;7.17;5.50;;;15.50;99.90;;;;;;5035401;28;20218;-78
2022/10/26 04:13:32;;;;;;;8.53;5.20;;;15.40;99.90;;;;;;5037761;28;20566;-79
2022/10/26 04:16:00;;;;;;;12.27;6.33;;;15.40;99.90;;;;;;5035930;28;20292;-77
2022/10/26 04:18:27;;;;;;;7.53;5.53;;;15.40;99.90;;;;;;5035498;28;20641;-80
2022/10/26 04:20:54;;;;;;;5.90;4.17;;;15.40;99.90;;;;;;5027183;28;20194;-79
2022/10/26 04:23:22;;;;;;;7.33;5.60;;;15.30;99.90;;;;;;5040477;28;20212;-79
2022/10/26 04:25:49;;;;;;;7.43;4.80;;;15.30;99.90;;;;;;5033269;28;20191;-80
2022/10/26 04:28:18;;;;;;;10.03;5.90;;;15.40;99.90;;;;;;5038318;28;20216;-77
2022/10/26 04:30:47;;;;;;;6.53;5.43;;;15.30;99.90;;;;;;5035982;28;20207;-77
2022/10/26 04:33:14;;;;;;;9.87;5.83;;;15.30;99.90;;;;;;5025834;28;20332;-79
2022/10/26 04:35:41;;;;;;;10.27;6.10;;;15.40;99.90;;;;;;5043053;28;20202;-78
2022/10/26 04:38:10;;;;;;;7.00;5.17;;;15.40;99.90;;;;;;5041482;28;20186;-78
2022/10/26 04:40:37;;;;;;;5.57;4.37;;;15.30;99.90;;;;;;5033737;28;20234;-79
2022/10/26 04:43:04;;;;;;;5.43;4.20;;;15.40;99.90;;;;;;5037530;28;20210;-80
2022/10/26 04:45:33;;;;;;;7.87;5.87;;;15.40;99.90;;;;;;5034274;28;20209;-79
2022/10/26 04:48:03;;;;;;;5.70;4.57;;;15.40;99.90;;;;;;5035833;28;20754;-79
2022/10/26 04:50:30;;;;;;;14.53;5.73;;;15.40;99.90;;;;;;5038419;28;20206;-79
2022/10/26 04:52:58;;;;;;;4.70;4.20;;;15.40;99.90;;;;;;5026829;28;20605;-79
2022/10/26 04:55:25;;;;;;;11.73;6.03;;;15.50;99.90;;;;;;5027727;28;20275;-78
2022/10/26 04:57:53;;;;;;;6.60;4.70;;;15.50;99.90;;;;;;5032586;28;20290;-80
2022/10/26 05:00:20;;;;;;;7.03;4.17;;;15.40;99.90;;;;;;5018097;28;20207;-79
2022/10/26 05:02:49;;;;;;;3.67;3.03;;;15.50;99.90;;;;;;5040694;28;20240;-80
2022/10/26 05:05:17;;;;;;;2.80;2.60;;;15.50;99.90;;;;;;5034235;28;20206;-79
2022/10/26 05:07:44;;;;;;;2.93;2.70;;;15.50;99.90;;;;;;5035081;28;20208;-79
2022/10/26 05:10:11;;;;;;;2.67;2.47;;;15.50;99.90;;;;;;5033741;28;20203;-77
2022/10/26 05:12:39;;;;;;;7.80;3.77;;;15.60;99.90;;;;;;5046102;28;20284;-79
2022/10/26 05:15:07;;;;;;;5.27;3.80;;;15.60;99.90;;;;;;5029533;28;20214;-78
2022/10/26 05:17:34;;;;;;;5.70;3.67;;;15.60;99.90;;;;;;5043758;28;20324;-79
2022/10/26 05:20:04;;;;;;;2.77;2.57;;;15.50;99.90;;;;;;5039554;28;20205;-78
2022/10/26 05:22:32;;;;;;;2.73;2.53;;;15.60;99.90;;;;;;5042432;28;20196;-78
2022/10/26 05:24:59;;;;;;;5.27;3.20;;;15.60;99.90;;;;;;5040638;28;20198;-79
2022/10/26 05:27:26;;;;;;;2.93;2.63;;;15.60;99.90;;;;;;5042558;28;20274;-79
2022/10/26 05:29:54;;;;;;;4.33;3.27;;;15.60;99.90;;;;;;5044402;28;20292;-78
2022/10/26 05:32:21;;;;;;;4.70;3.50;;;15.60;99.90;;;;;;5039456;28;20285;-78
2022/10/26 05:34:48;;;;;;;4.63;3.50;;;15.50;99.90;;;;;;5043785;28;20194;-78
2022/10/26 05:37:17;;;;;;;4.13;3.10;;;15.50;99.90;;;;;;5024942;28;20198;-78
2022/10/26 05:39:44;;;;;;;6.07;3.60;;;15.50;99.90;;;;;;5036230;28;20188;-78
2022/10/26 05:42:11;;;;;;;6.63;5.10;;;15.50;99.90;;;;;;5042540;28;20292;-77
2022/10/26 05:44:38;;;;;;;5.70;3.37;;;15.50;99.90;;;;;;5038352;28;20389;-78
2022/10/26 05:47:06;;;;;;;7.43;4.37;;;15.50;99.90;;;;;;5042143;28;20223;-78
2022/10/26 05:49:34;;;;;;;4.80;4.10;;;15.40;99.90;;;;;;5040107;28;20265;-78
2022/10/26 05:52:01;;;;;;;7.97;4.00;;;15.50;99.90;;;;;;5039984;28;20285;-78
2022/10/26 05:54:29;;;;;;;7.03;3.90;;;15.40;99.90;;;;;;5025454;28;20191;-78
2022/10/26 05:56:57;;;;;;;3.93;3.40;;;15.40;99.90;;;;;;5035988;28;20201;-79
2022/10/26 05:59:25;;;;;;;9.03;3.50;;;15.30;99.90;;;;;;5035386;28;20215;-80
2022/10/26 06:02:10;;;;;;;5.30;3.33;;;15.30;99.90;;;;;;5039911;28;20246;-79
2022/10/26 06:04:46;;;;;;;4.67;3.70;;;15.30;99.90;;;;;;5045360;28;20222;-79
2022/10/26 06:07:25;;;;;;;5.97;4.07;;;15.30;99.90;;;;;;5013308;28;20408;-77
2022/10/26 06:09:54;;;;;;;3.43;3.10;;;15.60;99.90;;;;;;5023793;28;20214;-77
2022/10/26 06:12:24;;;;;;;4.00;3.60;;;15.30;99.90;;;;;;5038314;28;20220;-78
2022/10/26 06:14:52;;;;;;;4.10;3.70;;;15.30;99.90;;;;;;5038171;28;20240;-79
2022/10/26 06:17:32;;;;;;;3.57;3.27;;;15.30;99.90;;;;;;5042819;28;20198;-78
2022/10/26 06:20:13;;;;;;;4.03;3.10;;;15.30;99.90;;;;;;5028639;28;20196;-77
2022/10/26 06:22:59;;;;;;;3.47;3.20;;;15.30;99.90;;;;;;5035744;28;20246;-79
2022/10/26 06:25:39;;;;;;;6.00;4.03;;;15.30;99.90;;;;;;5032309;28;20210;-79
2022/10/26 06:28:21;;;;;;;4.97;4.00;;;15.30;99.90;;;;;;5041755;28;20206;-79
2022/10/26 06:30:48;;;;;;;8.10;3.40;;;15.40;99.90;;;;;;5025609;28;20203;-79
2022/10/26 06:33:16;;;;;;;5.53;3.43;;;15.30;99.90;;;;;;5042253;28;20210;-79
2022/10/26 06:35:53;;;;;;;3.40;3.10;;;15.30;99.90;;;;;;5037145;28;20675;-78
2022/10/26 06:38:23;;;;;;;3.83;3.17;;;15.40;99.90;;;;;;5026420;28;20233;-78
2022/10/26 06:40:55;;;;;;;5.33;3.73;;;15.30;99.90;;;;;;5031366;28;20227;-78
2022/10/26 06:43:25;;;;;;;4.10;3.50;;;15.40;99.90;;;;;;5036421;28;20202;-77
2022/10/26 06:46:05;;;;;;;3.87;3.20;;;15.40;99.90;;;;;;5020607;28;20547;-80
2022/10/26 06:48:49;;;;;;;5.87;3.63;;;15.40;99.90;;;;;;5042582;28;20209;-79
2022/10/26 06:51:18;;;;;;;4.83;3.73;;;15.40;99.90;;;;;;5042105;28;20220;-80
2022/10/26 06:53:51;;;;;;;5.13;3.50;;;15.40;99.90;;;;;;5039062;28;20204;-79
2022/10/26 06:56:26;;;;;;;5.33;3.63;;;15.50;99.90;;;;;;5040414;28;20194;-78
2022/10/26 06:58:56;;;;;;;6.40;3.50;;;15.40;99.90;;;;;;5024556;28;20186;-79
2022/10/26 07:01:23;;;;;;;3.93;3.03;;;15.50;99.90;;;;;;5044515;28;20312;-78
2022/10/26 07:03:50;;;;;;;4.43;3.20;;;15.40;99.90;;;;;;5041454;28;20234;-78
2022/10/26 07:06:17;;;;;;;2.70;2.50;;;15.50;99.90;;;;;;5036657;28;20314;-79
2022/10/26 07:08:44;;;;;;;4.40;2.70;;;15.50;99.90;;;;;;5040292;28;20265;-78
2022/10/26 07:11:12;;;;;;;4.97;2.57;;;15.50;99.90;;;;;;5040402;28;20288;-79
2022/10/26 07:13:40;;;;;;;4.10;2.67;;;15.50;99.90;;;;;;5030231;28;20221;-78
2022/10/26 07:16:08;;;;;;;4.43;2.90;;;15.50;99.90;;;;;;5034937;28;20200;-76
2022/10/26 07:18:35;;;;;;;2.43;2.23;;;15.50;99.90;;;;;;5039268;28;20196;-78
2022/10/26 07:21:02;;;;;;;5.40;2.27;;;15.50;99.90;;;;;;5031805;28;20199;-78
2022/10/26 07:23:29;;;;;;;4.20;2.63;;;15.50;99.90;;;;;;5038796;28;20206;-77
2022/10/26 07:25:59;;;;;;;3.90;2.20;;;15.60;99.90;;;;;;5039956;28;20210;-78
2022/10/26 07:28:26;;;;;;;4.93;2.37;;;15.60;99.90;;;;;;5034021;28;20210;-79
2022/10/26 07:30:58;;;;;;;2.73;1.90;;;15.60;99.90;;;;;;5028834;28;20220;-78
2022/10/26 07:33:25;;;;;;;5.43;2.53;;;15.60;99.90;;;;;;5040253;28;20405;-80
2022/10/26 07:35:54;;;;;;;3.60;2.13;;;15.60;99.90;;;;;;5040279;28;20201;-78
2022/10/26 07:38:21;;;;;;;4.37;2.57;;;15.70;99.90;;;;;;5032734;28;20204;-77
2022/10/26 07:40:49;;;;;;;4.90;2.40;;;15.70;99.90;;;;;;5039498;28;20253;-78
2022/10/26 07:43:16;;;;;;;3.40;2.00;;;15.70;99.90;;;;;;5026699;28;20206;-82
2022/10/26 07:45:43;;;;;;;4.73;1.97;;;15.70;99.90;;;;;;5041334;28;20639;-80
2022/10/26 07:48:12;;;;;;;2.67;1.90;;;15.70;99.90;;;;;;5024917;28;20220;-79
2022/10/26 07:50:39;;;;;;;5.53;2.17;;;15.80;99.90;;;;;;5038434;28;20190;-78
2022/10/26 07:53:07;;;;;;;3.80;1.60;;;15.70;99.90;;;;;;5037077;28;20214;-78
2022/10/26 07:55:34;;;;;;;2.77;1.63;;;15.80;99.90;;;;;;5039449;28;20196;-79
2022/10/26 07:58:01;;;;;;;2.93;1.80;;;15.80;99.90;;;;;;5034116;28;20242;-78
2022/10/26 08:00:28;;;;;;;3.97;1.80;;;15.80;99.90;;;;;;5037343;28;20199;-78
2022/10/26 08:02:56;;;;;;;1.67;1.47;;;15.90;99.90;;;;;;5033532;28;20702;-80
2022/10/26 08:05:24;;;;;;;2.43;1.70;;;15.90;99.90;;;;;;5036783;28;20203;-79
2022/10/26 08:07:55;;;;;;;4.63;1.87;;;15.90;99.90;;;;;;5036464;28;20208;-79
2022/10/26 08:10:22;;;;;;;2.87;2.00;;;16.00;99.90;;;;;;5033769;28;20229;-77
2022/10/26 08:12:52;;;;;;;4.10;1.57;;;17.20;99.90;;;;;;5027922;28;20644;-78
2022/10/26 08:15:19;;;;;;;3.13;1.90;;;16.00;99.90;;;;;;5037650;28;20266;-80
2022/10/26 08:17:46;;;;;;;2.87;1.60;;;16.00;99.90;;;;;;5039385;28;20351;-78
2022/10/26 08:20:14;;;;;;;4.20;2.00;;;16.00;99.90;;;;;;5043029;28;20203;-80
2022/10/26 08:22:42;;;;;;;2.00;1.67;;;14.90;99.90;;;;;;5041059;28;20200;-79
2022/10/26 08:25:10;;;;;;;3.40;1.60;;;16.00;99.90;;;;;;5041754;28;20192;-80
2022/10/26 08:27:37;;;;;;;1.97;1.77;;;16.10;99.90;;;;;;5031180;28;20210;-81
2022/10/26 08:30:05;;;;;;;2.97;2.03;;;16.10;99.90;;;;;;5040485;28;20544;-77
2022/10/26 08:32:32;;;;;;;6.37;1.80;;;16.10;99.90;;;;;;5040953;28;20597;-81
2022/10/26 08:34:59;;;;;;;2.73;1.90;;;16.10;99.90;;;;;;5037149;28;20579;-81
2022/10/26 08:37:27;;;;;;;6.20;2.00;;;16.10;99.90;;;;;;5038551;28;20207;-78
2022/10/26 08:39:55;;;;;;;3.33;1.70;;;16.10;99.90;;;;;;5040314;28;20192;-79
2022/10/26 08:42:28;;;;;;;1.67;1.57;;;16.10;99.90;;;;;;5032332;28;20204;-78
2022/10/26 08:45:01;;;;;;;1.50;1.40;;;16.20;99.90;;;;;;5022927;28;20204;-80
2022/10/26 08:47:34;;;;;;;4.10;2.10;;;16.20;99.90;;;;;;5037505;28;20199;-79
2022/10/26 08:50:09;;;;;;;4.33;2.03;;;16.20;99.90;;;;;;5021567;28;20465;-78
2022/10/26 08:52:43;;;;;;;2.80;1.50;;;16.30;99.90;;;;;;5040328;28;20606;-79
2022/10/26 08:55:16;;;;;;;4.03;1.67;;;16.30;99.90;;;;;;5042678;28;20205;-80
2022/10/26 08:57:48;;;;;;;5.20;1.93;;;16.40;99.90;;;;;;5046481;28;20404;-83
2022/10/26 09:00:20;;;;;;;4.20;2.00;;;16.40;99.90;;;;;;5032640;28;20286;-82
2022/10/26 09:02:50;;;;;;;2.23;1.93;;;16.40;99.90;;;;;;5043108;28;20660;-80
2022/10/26 09:05:22;;;;;;;1.53;1.43;;;16.50;99.90;;;;;;5039552;28;20595;-77
2022/10/26 09:07:56;;;;;;;1.40;1.30;;;16.50;99.90;;;;;;5039466;28;20193;-81
2022/10/26 09:10:39;;;;;;;3.27;1.53;;;16.60;99.90;;;;;;5045405;28;20246;-81
2022/10/26 09:13:18;;;;;;;4.23;2.17;;;16.60;99.90;;;;;;5042424;28;20212;-80
2022/10/26 09:16:00;;;;;;;2.25;1.92;;;16.70;99.90;;;;;;5042686;28;20189;-80
2022/10/26 09:18:40;;;;;;;2.37;1.57;;;16.70;99.90;;;;;;5040196;28;20678;-79
2022/10/26 09:21:21;;;;;;;4.70;1.87;;;16.70;99.90;;;;;;5031033;28;20680;-80
2022/10/26 09:24:01;;;;;;;3.30;2.00;;;16.70;99.90;;;;;;5035520;28;20654;-78
2022/10/26 09:26:33;;;;;;;1.20;1.20;;;16.70;99.90;;;;;;5046512;28;20199;-80
2022/10/26 09:29:04;;;;;;;2.27;1.40;;;16.80;99.90;;;;;;5048063;28;20216;-79
2022/10/26 09:31:38;;;;;;;4.00;1.85;;;16.80;99.90;;;;;;5043922;28;20279;-78
2022/10/26 09:34:06;;;;;;;5.60;2.00;;;16.80;99.90;;;;;;5037917;28;20196;-78
2022/10/26 09:36:35;;;;;;;1.83;1.60;;;16.80;99.90;;;;;;5040602;28;20200;-78
2022/10/26 09:39:13;;;;;;;2.00;1.60;;;16.90;99.90;;;;;;5048030;28;20194;-79
2022/10/26 09:41:49;;;;;;;1.50;1.17;;;17.10;99.90;;;;;;5037481;28;20554;-79
2022/10/26 09:44:26;;;;;;;2.33;1.60;;;17.20;99.90;;;;;;5041723;28;20189;-79
2022/10/26 09:47:03;;;;;;;2.47;1.30;;;17.30;99.90;;;;;;5020539;28;20220;-79
2022/10/26 09:49:40;;;;;;;2.03;1.52;;;17.30;99.90;;;;;;5044561;28;20275;-80
2022/10/26 09:52:07;;;;;;;2.17;1.60;;;17.40;99.90;;;;;;5036670;28;20213;-79
2022/10/26 09:54:38;;;;;;;1.50;1.40;;;17.60;99.90;;;;;;5040679;28;20273;-79
2022/10/26 09:57:07;;;;;;;1.25;1.10;;;17.80;99.90;;;;;;5029596;28;20225;-80
2022/10/26 09:59:39;;;;;;;1.65;1.45;;;17.80;99.90;;;;;;5037542;28;20185;-78
2022/10/26 10:02:33;;;;;;;1.88;1.40;;;17.90;99.90;;;;;;5035739;28;20747;-78
2022/10/26 10:05:02;;;;;;;2.25;1.30;;;17.90;99.90;;;;;;5042307;28;20197;-79
2022/10/26 10:07:30;;;;;;;2.25;1.45;;;18.00;99.90;;;;;;5026400;28;20201;-81
2022/10/26 10:10:09;;;;;;;1.48;1.20;;;18.00;99.90;;;;;;5037024;28;20255;-78
2022/10/26 10:12:37;;;;;;;1.10;1.00;;;18.00;99.90;;;;;;5037731;28;20221;-79
2022/10/26 10:15:05;;;;;;;1.60;1.10;;;17.90;99.90;;;;;;5041289;28;20198;-79
2022/10/26 10:17:34;;;;;;;1.20;1.10;;;17.90;99.90;;;;;;5036984;28;20190;-83
2022/10/26 10:20:12;;;;;;;2.58;1.05;;;17.90;99.90;;;;;;5029624;28;20190;-79
2022/10/26 10:23:02;;;;;;;1.70;0.90;;;18.00;99.90;;;;;;5038112;28;20190;-78
2022/10/26 10:25:36;;;;;;;1.10;1.00;;;18.00;99.90;;;;;;5042162;28;20285;-81
2022/10/26 10:28:20;;;;;;;1.85;1.25;;;18.10;99.90;;;;;;5038657;28;20912;-80
2022/10/26 10:30:53;;;;;;;2.60;1.20;;;18.10;99.90;;;;;;5044246;28;20201;-80
2022/10/26 10:33:21;;;;;;;1.75;1.30;;;18.10;99.90;;;;;;5035813;28;20813;-79
2022/10/26 10:35:51;;;;;;;3.17;1.63;;;18.10;99.90;;;;;;5043702;28;20278;-79
2022/10/26 10:38:21;;;;;;;2.15;1.50;;;18.10;99.90;;;;;;5037053;28;20205;-81
2022/10/26 10:40:53;;;;;;;4.05;1.27;;;18.00;99.90;;;;;;5031819;28;20249;-80
2022/10/26 10:43:22;;;;;;;1.85;1.23;;;18.00;99.90;;;;;;5036290;28;20243;-81
2022/10/26 10:45:56;;;;;;;2.42;1.50;;;18.00;99.90;;;;;;5039468;28;20197;-79
2022/10/26 10:48:26;;;;;;;1.55;1.45;;;18.00;99.90;;;;;;5036448;28;20186;-79
2022/10/26 10:50:56;;;;;;;4.53;1.13;;;18.00;99.90;;;;;;5039280;28;20305;-79
2022/10/26 10:53:29;;;;;;;2.17;1.30;;;18.00;99.90;;;;;;5034134;28;20194;-80
2022/10/26 10:56:14;;;;;;;2.38;1.30;;;17.90;99.90;;;;;;5033532;28;20745;-77
2022/10/26 10:58:53;;;;;;;1.17;1.08;;;17.90;99.90;;;;;;5033040;28;20203;-79
2022/10/26 11:01:22;;;;;;;1.73;1.00;;;17.80;99.90;;;;;;5041015;28;20190;-78
2022/10/26 11:04:13;;;;;;;2.87;1.40;;;17.80;99.90;;;;;;5040806;28;20238;-79
2022/10/26 11:06:43;;;;;;;3.55;1.58;;;17.80;99.90;;;;;;5036689;28;20222;-81
2022/10/26 11:09:15;;;;;;;4.93;1.50;;;17.80;99.90;;;;;;5039966;28;20201;-79
2022/10/26 11:11:46;;;;;;;3.53;1.55;;;17.80;99.90;;;;;;5037372;28;20198;-79
2022/10/26 11:14:19;;;;;;;1.48;1.38;;;17.80;99.90;;;;;;5037797;28;20243;-79
2022/10/26 11:16:51;;;;;;;2.93;1.30;;;17.80;99.90;;;;;;5039796;28;20296;-81
2022/10/26 11:19:27;;;;;;;1.67;1.02;;;17.80;99.90;;;;;;5039148;28;20187;-77
2022/10/26 11:21:55;;;;;;;0.90;0.80;;;17.80;99.90;;;;;;5027582;28;20201;-79
2022/10/26 11:24:27;;;;;;;1.63;1.20;;;17.80;99.90;;;;;;5035828;28;20259;-80
2022/10/26 11:26:59;;;;;;;1.90;1.30;;;17.80;99.90;;;;;;5040209;28;20198;-81
2022/10/26 11:29:39;;;;;;;1.95;1.48;;;17.80;99.90;;;;;;5038898;28;20194;-81
2022/10/26 11:32:15;;;;;;;1.85;1.50;;;17.80;99.90;;;;;;5038396;28;20201;-80
2022/10/26 11:34:48;;;;;;;2.35;1.30;;;17.80;99.90;;;;;;5038015;28;20609;-82
2022/10/26 11:37:22;;;;;;;1.40;1.23;;;17.70;99.90;;;;;;5040952;28;20207;-82
2022/10/26 11:40:01;;;;;;;1.35;1.25;;;17.70;99.90;;;;;;5040899;28;20240;-79
2022/10/26 11:42:36;;;;;;;2.08;1.70;;;17.60;99.90;;;;;;5038933;28;20260;-80
2022/10/26 11:45:13;;;;;;;3.22;1.30;;;17.60;99.90;;;;;;5031374;28;20208;-80
2022/10/26 11:47:46;;;;;;;4.55;1.38;;;17.60;99.90;;;;;;5028031;28;20589;-80
2022/10/26 11:50:19;;;;;;;3.17;1.27;;;17.50;99.90;;;;;;5029986;28;20315;-79
2022/10/26 11:52:51;;;;;;;2.30;1.20;;;17.50;99.90;;;;;;5041554;28;20562;-79
2022/10/26 11:55:22;;;;;;;1.52;1.15;;;17.50;99.90;;;;;;5041621;28;20186;-79
2022/10/26 11:57:52;;;;;;;2.13;1.48;;;17.50;99.90;;;;;;5033289;28;20199;-80
2022/10/26 12:00:22;;;;;;;1.10;1.00;;;17.50;99.90;;;;;;5039825;28;20254;-80
2022/10/26 12:02:54;;;;;;;1.63;1.30;;;17.50;99.90;;;;;;5042021;28;20297;-79
2022/10/26 12:05:25;;;;;;;2.88;1.50;;;17.50;99.90;;;;;;5041692;28;20248;-81
2022/10/26 12:07:55;;;;;;;1.20;1.10;;;17.50;99.90;;;;;;5026434;28;20198;-79
2022/10/26 12:10:27;;;;;;;1.95;1.30;;;17.50;99.90;;;;;;5045559;28;20208;-79
2022/10/26 12:13:01;;;;;;;1.73;1.30;;;17.50;99.90;;;;;;5032006;28;20287;-80
2022/10/26 12:15:34;;;;;;;1.02;1.00;;;17.50;99.90;;;;;;5039759;28;20208;-79
2022/10/26 12:18:11;;;;;;;1.10;1.00;;;17.50;99.90;;;;;;5039434;28;20190;-79
2022/10/26 12:21:05;;;;;;;2.07;1.20;;;17.50;99.90;;;;;;5039938;28;20269;-79
2022/10/26 12:23:36;;;;;;;1.25;1.15;;;17.60;99.90;;;;;;5021999;28;20201;-80
2022/10/26 12:26:38;;;;;;;2.92;1.30;;;17.50;99.90;;;;;;5029110;28;20248;-78
2022/10/26 12:29:33;;;;;;;1.88;1.20;;;17.60;99.90;;;;;;5043160;28;20196;-79
2022/10/26 12:32:02;;;;;;;3.15;1.13;;;17.70;99.90;;;;;;5041353;28;20190;-79
2022/10/26 12:35:01;;;;;;;2.03;1.30;;;17.60;99.90;;;;;;5043240;28;20189;-80
2022/10/26 12:37:34;;;;;;;1.55;0.77;;;17.60;99.90;;;;;;5032376;28;20288;-79
2022/10/26 12:40:40;;;;;;;1.77;0.90;;;17.50;99.90;;;;;;5043636;28;20191;-77
2022/10/26 12:43:38;;;;;;;1.15;1.05;;;17.50;99.90;;;;;;5032213;28;20288;-79
2022/10/26 12:46:41;;;;;;;2.65;1.00;;;17.50;99.90;;;;;;4998979;28;20210;-79
2022/10/26 12:49:54;;;;;;;4.22;1.20;;;17.50;99.90;;;;;;5015238;28;20205;-79
2022/10/26 12:52:48;;;;;;;1.92;1.20;;;17.40;99.90;;;;;;5036590;28;20211;-80
2022/10/26 12:55:52;;;;;;;2.60;0.90;;;17.40;99.90;;;;;;5036904;28;20223;-80
2022/10/26 12:59:02;;;;;;;1.07;1.07;;;17.40;99.90;;;;;;5040136;28;20543;-79
2022/10/26 13:02:02;;;;;;;3.35;1.00;;;16.70;99.90;;;;;;5042309;28;20492;-79
2022/10/26 13:05:21;;;;;;;2.93;0.97;;;17.40;99.90;;;;;;5034214;28;20205;-81
2022/10/26 13:07:50;;;;;;;2.95;1.10;;;17.30;99.90;;;;;;4994615;28;20207;-78
2022/10/26 13:10:23;;;;;;;1.93;0.97;;;17.30;99.90;;;;;;4997019;28;20242;-80
2022/10/26 13:12:53;;;;;;;0.80;0.80;;;17.30;99.90;;;;;;5016904;28;20292;-79